createdAt,value
2022-11-19T01:07:53.518Z,13.97
2022-11-19T01:10:20.258Z,17.07
2022-11-19T01:13:05.777Z,18.13
2022-11-19T01:15:32.788Z,14.37
2022-11-19T01:17:59.536Z,13.13
2022-11-19T01:20:26.477Z,11.87
2022-11-19T01:22:53.254Z,12.20
2022-11-19T01:25:19.970Z,11.43
2022-11-19T01:27:46.802Z,11.20
2022-11-19T01:30:13.637Z,10.60
2022-11-19T01:32:40.338Z,9.53
2022-11-19T01:35:07.668Z,9.50
2022-11-19T01:37:34.437Z,8.37
2022-11-19T01:40:01.146Z,8.53
2022-11-19T01:42:51.577Z,10.27
2022-11-19T01:45:37.781Z,10.03
2022-11-19T01:48:16.566Z,10.00
2022-11-19T01:50:48.548Z,9.77
2022-11-19T01:53:15.457Z,10.50
2022-11-19T01:55:43.848Z,10.93
2022-11-19T02:17:59.800Z,29.27
2022-11-19T02:20:34.871Z,20.80
2022-11-19T02:23:27.849Z,25.50
2022-11-19T02:26:06.613Z,21.13
2022-11-19T02:28:52.935Z,14.03
2022-11-19T02:31:24.045Z,16.10
2022-11-19T02:33:51.144Z,15.53
2022-11-19T02:36:22.731Z,17.83
2022-11-19T02:39:04.168Z,14.10
2022-11-19T02:41:38.424Z,13.73
2022-11-19T03:58:48.905Z,13.87
2022-11-19T04:01:16.104Z,12.87
2022-11-19T04:04:02.831Z,13.20
2022-11-19T04:06:29.552Z,13.73
2022-11-19T04:08:56.268Z,13.83
2022-11-19T04:13:48.550Z,14.40
2022-11-19T04:16:15.300Z,14.77
2022-11-19T04:18:41.990Z,13.87
2022-11-19T04:21:08.698Z,15.83
2022-11-19T04:23:35.377Z,14.03
2022-11-19T04:26:02.068Z,15.13
2022-11-19T04:28:28.747Z,14.53
2022-11-19T04:30:55.457Z,16.43
2022-11-19T04:33:22.166Z,15.87
2022-11-19T04:35:48.880Z,14.93
2022-11-19T04:38:15.596Z,15.43
2022-11-19T04:40:42.642Z,14.03
2022-11-19T04:43:09.345Z,15.17
2022-11-19T04:45:36.070Z,16.23
2022-11-19T04:48:02.797Z,15.57
2022-11-19T04:50:29.534Z,15.47
2022-11-19T04:52:56.334Z,16.20
2022-11-19T04:55:23.094Z,16.97
2022-11-19T04:57:51.830Z,13.87
2022-11-19T05:00:18.729Z,15.17
2022-11-19T05:02:45.760Z,15.60
2022-11-19T05:05:12.496Z,15.57
2022-11-19T05:07:39.386Z,15.07
2022-11-19T05:10:07.419Z,14.40
2022-11-19T05:12:34.107Z,16.10
2022-11-19T05:15:00.792Z,15.13
2022-11-19T05:17:27.517Z,15.73
2022-11-19T05:19:54.254Z,15.57
2022-11-19T05:22:21.000Z,16.00
2022-11-19T05:24:47.704Z,16.43
2022-11-19T05:27:14.504Z,16.07
2022-11-19T05:29:41.230Z,17.10
2022-11-19T05:32:07.908Z,16.50
2022-11-19T05:34:34.595Z,15.40
2022-11-19T05:37:01.328Z,15.50
2022-11-19T05:39:28.617Z,16.60
2022-11-19T05:41:55.816Z,16.57
2022-11-19T05:44:22.670Z,16.27
2022-11-19T05:46:49.358Z,15.93
2022-11-19T05:49:16.372Z,15.80
2022-11-19T05:51:43.394Z,16.33
2022-11-19T05:54:11.208Z,15.27
2022-11-19T05:56:37.930Z,14.57
2022-11-19T05:59:04.635Z,14.30
2022-11-19T06:01:31.566Z,15.47
2022-11-19T06:03:58.301Z,16.13
2022-11-19T06:06:25.538Z,17.03
2022-11-19T06:08:52.269Z,15.27
2022-11-19T06:11:37.847Z,17.80
2022-11-19T06:14:04.694Z,17.20
2022-11-19T06:16:31.392Z,16.50
2022-11-19T06:18:58.141Z,15.80
2022-11-19T06:21:24.849Z,16.67
2022-11-19T06:23:51.582Z,17.00
2022-11-19T06:26:26.290Z,15.57
2022-11-19T06:28:53.694Z,16.53
2022-11-19T06:31:21.577Z,16.60
2022-11-19T06:33:48.798Z,18.13
2022-11-19T06:36:15.632Z,18.67
2022-11-19T06:38:42.296Z,17.80
2022-11-19T06:41:08.977Z,17.03
2022-11-19T06:43:35.669Z,16.23
2022-11-19T06:46:02.428Z,18.40
2022-11-19T06:48:29.134Z,17.83
2022-11-19T06:50:56.237Z,17.30
2022-11-19T06:53:23.081Z,17.67
2022-11-19T06:55:56.963Z,15.50
2022-11-19T06:58:23.750Z,17.50
2022-11-19T07:00:50.550Z,17.07
2022-11-19T07:03:17.258Z,17.67
2022-11-19T07:05:44.036Z,16.80
2022-11-19T07:08:10.814Z,17.53
2022-11-19T07:10:37.759Z,16.20
2022-11-19T07:13:04.607Z,17.77
2022-11-19T07:15:31.379Z,18.60
2022-11-19T07:17:58.221Z,16.93
2022-11-19T07:20:25.202Z,15.43
2022-11-19T07:22:57.690Z,15.17
2022-11-19T07:27:52.638Z,15.47
2022-11-19T07:30:19.450Z,16.17
2022-11-19T07:32:46.205Z,15.80
2022-11-19T07:35:13.075Z,16.07
2022-11-19T07:37:39.915Z,14.53
2022-11-19T07:40:07.270Z,15.17
2022-11-19T07:42:49.212Z,14.93
2022-11-19T07:45:17.898Z,13.33
2022-11-19T07:47:44.681Z,14.90
2022-11-19T07:50:12.250Z,14.57
2022-11-19T07:52:39.214Z,14.63
2022-11-19T07:55:06.836Z,13.00
2022-11-19T07:57:33.784Z,14.20
2022-11-19T08:00:00.575Z,15.03
2022-11-19T08:02:27.319Z,14.27
2022-11-19T08:04:53.982Z,13.17
2022-11-19T08:07:20.832Z,13.27
2022-11-19T08:09:47.588Z,12.80
2022-11-19T08:12:14.449Z,12.63
2022-11-19T08:14:41.152Z,13.93
2022-11-19T08:17:26.829Z,13.13
2022-11-19T08:19:53.535Z,13.93
2022-11-19T08:22:20.383Z,12.73
2022-11-19T08:24:47.259Z,13.13
2022-11-19T08:27:14.183Z,11.80
2022-11-19T08:29:41.094Z,13.30
2022-11-19T08:32:07.853Z,13.47
2022-11-19T08:34:34.653Z,13.03
2022-11-19T08:37:01.477Z,11.90
2022-11-19T08:39:28.234Z,11.70
2022-11-19T08:42:13.580Z,12.47
2022-11-19T08:44:40.310Z,12.70
2022-11-19T08:47:07.198Z,11.73
2022-11-19T08:49:34.001Z,12.00
2022-11-19T08:52:00.788Z,12.53
2022-11-19T08:54:27.612Z,12.67
2022-11-19T08:56:54.609Z,12.37
2022-11-19T08:59:22.100Z,12.60
2022-11-19T09:23:56.810Z,10.77
2022-11-19T09:26:23.590Z,10.47
2022-11-19T09:28:50.727Z,11.63
2022-11-19T09:31:19.700Z,10.30
2022-11-19T09:33:51.851Z,11.10
2022-11-19T09:36:19.595Z,11.23
2022-11-19T09:38:47.678Z,10.50
2022-11-19T09:41:30.338Z,11.80
2022-11-19T09:44:18.633Z,11.37
2022-11-19T09:47:14.845Z,9.43
2022-11-19T09:49:51.423Z,9.57
2022-11-19T09:52:22.270Z,10.97
2022-11-19T09:54:51.803Z,11.00
2022-11-19T09:57:26.776Z,11.07
2022-11-19T09:59:57.129Z,10.13
2022-11-19T10:02:24.000Z,10.03
2022-11-19T10:04:51.959Z,9.17
2022-11-19T10:07:45.433Z,9.27
2022-11-19T10:10:38.363Z,9.40
2022-11-19T10:13:35.744Z,9.37
2022-11-19T10:16:06.336Z,9.70
2022-11-19T10:19:13.999Z,9.77
2022-11-19T10:22:23.574Z,10.90
2022-11-19T10:25:17.699Z,8.63
2022-11-19T10:28:00.408Z,9.70
2022-11-19T10:30:30.743Z,8.93
2022-11-19T10:33:05.578Z,8.60
2022-11-19T10:35:50.621Z,8.73
2022-11-19T10:38:49.947Z,8.90
2022-11-19T10:41:33.901Z,9.30
2022-11-19T10:44:09.686Z,8.87
2022-11-19T10:46:37.014Z,7.87
2022-11-19T10:49:06.354Z,8.33
2022-11-19T10:51:41.356Z,7.87
2022-11-19T10:54:25.557Z,8.50
2022-11-19T10:56:54.331Z,9.23
2022-11-19T10:59:24.301Z,9.13
2022-11-19T11:01:55.635Z,9.73
2022-11-19T11:04:25.680Z,8.33
2022-11-19T11:07:03.667Z,9.03
2022-11-19T11:09:42.346Z,9.83
2022-11-19T11:12:30.840Z,9.30
2022-11-19T11:15:28.238Z,9.10
2022-11-19T11:18:06.489Z,9.57
2022-11-19T11:20:33.925Z,9.70
2022-11-19T11:23:09.236Z,9.53
2022-11-19T11:25:38.466Z,9.00
2022-11-19T11:28:15.504Z,9.23
2022-11-19T11:31:04.476Z,10.33
2022-11-19T11:33:52.620Z,9.13
2022-11-19T11:36:24.468Z,8.87
2022-11-19T11:38:54.385Z,8.93
2022-11-19T11:44:14.616Z,8.13
2022-11-19T11:46:57.106Z,7.97
2022-11-19T11:49:37.492Z,8.70
2022-11-19T11:52:10.137Z,9.50
2022-11-19T11:54:39.869Z,9.50
2022-11-19T11:57:30.029Z,7.70
2022-11-19T11:59:57.353Z,9.13
2022-11-19T12:02:30.405Z,7.37
2022-11-19T12:05:03.710Z,8.07
2022-11-19T12:08:34.477Z,8.73
2022-11-19T12:11:20.203Z,8.90
2022-11-19T12:14:11.101Z,8.60
2022-11-19T12:16:57.082Z,9.10
2022-11-19T12:20:02.211Z,8.03
2022-11-19T12:22:56.666Z,7.73
2022-11-19T12:25:46.421Z,7.67
2022-11-19T12:28:35.761Z,7.27
2022-11-19T12:31:36.887Z,8.97
2022-11-19T12:34:08.725Z,9.27
2022-11-19T12:37:10.031Z,8.33
2022-11-19T12:40:09.149Z,7.87
2022-11-19T12:42:52.317Z,8.07
2022-11-19T12:45:51.868Z,9.05
2022-11-19T12:48:42.884Z,7.60
2022-11-19T12:51:44.299Z,7.40
2022-11-19T12:54:37.358Z,7.47
2022-11-19T12:57:34.997Z,8.77
2022-11-19T13:00:19.227Z,7.70
2022-11-19T13:02:58.982Z,7.63
2022-11-19T13:05:43.893Z,8.40
2022-11-19T13:08:36.484Z,7.37
2022-11-19T13:11:43.518Z,7.57
2022-11-19T13:14:22.414Z,7.37
2022-11-19T13:16:49.992Z,7.00
2022-11-19T13:19:28.717Z,9.17
2022-11-19T13:22:12.607Z,8.30
2022-11-19T13:27:20.218Z,7.63
2022-11-19T13:30:13.981Z,7.10
2022-11-19T13:33:10.456Z,6.40
2022-11-19T13:35:48.560Z,7.80
2022-11-19T13:38:34.072Z,6.30
2022-11-19T13:41:15.897Z,13.47
2022-11-19T13:44:02.275Z,14.70
2022-11-19T13:46:33.921Z,11.40
2022-11-19T13:49:03.286Z,8.40
2022-11-19T13:52:04.010Z,10.17
2022-11-19T13:54:39.107Z,7.77
2022-11-19T15:21:23.834Z,7.33
2022-11-19T15:24:25.127Z,6.78
2022-11-19T15:26:57.776Z,6.53
2022-11-19T15:29:47.675Z,6.17
2022-11-19T15:32:38.527Z,5.97
2022-11-19T15:35:23.276Z,6.80
2022-11-19T15:38:18.695Z,6.57
2022-11-19T15:40:48.351Z,6.43
2022-11-19T15:43:39.909Z,6.63
2022-11-19T15:46:18.682Z,5.97
2022-11-19T15:49:16.433Z,6.30
2022-11-19T15:52:17.293Z,6.40
2022-11-19T15:54:44.309Z,6.70
2022-11-19T15:57:17.053Z,6.70
2022-11-19T15:59:47.788Z,7.43
2022-11-19T16:02:40.443Z,5.77
2022-11-19T16:05:16.316Z,5.50
2022-11-19T16:07:45.724Z,7.23
2022-11-19T16:10:34.551Z,7.70
2022-11-19T16:13:21.953Z,19.93
2022-11-19T16:16:12.491Z,67.83
2022-11-19T16:18:49.935Z,44.30
2022-11-19T16:21:22.178Z,48.20
2022-11-19T16:24:08.057Z,33.93
2022-11-19T16:26:40.181Z,26.50
2022-11-19T16:29:11.000Z,18.23
2022-11-19T16:31:37.739Z,19.57
2022-11-19T16:34:04.458Z,10.00
2022-11-19T16:36:32.810Z,20.30
2022-11-19T16:39:00.242Z,16.37
2022-11-19T16:41:46.298Z,13.60
2022-11-19T16:44:16.755Z,10.83
2022-11-19T16:46:43.804Z,9.83
2022-11-19T16:49:38.822Z,8.33
2022-11-19T16:52:07.654Z,8.83
2022-11-19T16:54:45.596Z,8.70
2022-11-19T16:57:21.862Z,7.80
2022-11-19T16:59:51.021Z,7.63
2022-11-19T17:02:20.421Z,7.77
2022-11-19T17:04:49.461Z,6.57
2022-11-19T17:07:27.817Z,7.47
2022-11-19T17:10:30.193Z,7.23
2022-11-19T17:13:30.886Z,6.60
2022-11-19T17:16:21.177Z,7.57
2022-11-19T17:18:50.538Z,6.80
2022-11-19T17:21:25.894Z,7.13
2022-11-19T17:23:53.719Z,6.70
2022-11-19T17:26:26.590Z,7.67
2022-11-19T17:29:26.034Z,6.85
2022-11-19T17:31:56.542Z,6.27
2022-11-19T17:34:42.449Z,7.03
2022-11-19T17:37:09.471Z,6.03
2022-11-19T17:39:36.244Z,6.30
2022-11-19T17:42:21.989Z,7.13
2022-11-19T17:44:49.061Z,6.20
2022-11-19T17:47:23.285Z,7.53
2022-11-19T17:49:51.568Z,6.43
2022-11-19T17:52:27.098Z,7.33
2022-11-19T17:54:59.099Z,6.37
2022-11-19T17:57:26.093Z,6.87
2022-11-19T17:59:52.979Z,6.77
2022-11-19T18:02:20.837Z,7.73
2022-11-19T18:04:48.474Z,6.47
2022-11-19T18:07:15.945Z,6.67
2022-11-19T18:09:45.298Z,32.97
2022-11-19T18:12:17.425Z,42.93
2022-11-19T18:14:44.895Z,27.50
2022-11-19T18:17:13.068Z,23.97
2022-11-19T18:19:42.679Z,15.63
2022-11-19T18:22:20.073Z,10.43
2022-11-19T18:24:49.424Z,16.30
2022-11-19T18:27:17.142Z,17.20
2022-11-19T18:29:43.882Z,16.17
2022-11-19T18:32:12.286Z,12.10
2022-11-19T18:34:38.981Z,12.73
2022-11-19T18:37:05.772Z,13.13
2022-11-19T18:39:32.481Z,10.07
2022-11-19T18:41:59.236Z,8.87
2022-11-19T18:44:35.076Z,7.70
2022-11-19T18:47:07.767Z,10.97
2022-11-19T18:49:35.119Z,8.77
2022-11-19T18:52:03.125Z,8.93
2022-11-19T18:54:30.285Z,9.90
2022-11-19T18:56:57.461Z,7.43
2022-11-19T18:59:24.721Z,7.33
2022-11-19T19:01:52.298Z,8.00
2022-11-19T19:04:19.616Z,7.63
2022-11-19T19:06:46.765Z,8.10
2022-11-19T19:09:20.008Z,7.60
2022-11-19T19:14:39.657Z,7.60
2022-11-19T19:17:06.797Z,7.50
2022-11-19T19:19:33.998Z,7.07
2022-11-19T19:22:01.776Z,7.37
2022-11-19T19:24:29.003Z,7.90
2022-11-19T19:26:56.136Z,6.87
2022-11-19T19:29:23.696Z,7.83
2022-11-19T19:31:51.061Z,6.97
2022-11-19T19:34:18.286Z,8.63
2022-11-19T19:36:50.311Z,7.80
2022-11-19T19:39:20.457Z,7.70
2022-11-19T19:41:49.162Z,7.63
2022-11-19T19:44:16.421Z,8.27
2022-11-19T19:46:43.634Z,7.97
2022-11-19T19:49:10.770Z,7.93
2022-11-19T19:51:37.900Z,7.43
2022-11-19T19:54:05.167Z,8.30
2022-11-19T19:56:33.013Z,7.63
2022-11-19T19:59:00.575Z,7.40
2022-11-19T20:01:29.042Z,8.53
2022-11-19T20:04:01.418Z,7.27
2022-11-19T20:06:28.901Z,7.77
2022-11-19T20:08:56.077Z,8.93
2022-11-19T20:11:27.167Z,7.77
2022-11-19T20:13:55.358Z,7.33
2022-11-19T20:16:24.001Z,7.70
2022-11-19T20:18:51.884Z,10.57
2022-11-19T20:21:20.540Z,7.83
2022-11-19T20:23:47.780Z,8.50
2022-11-19T20:26:16.396Z,8.63
2022-11-19T20:28:43.695Z,8.83
2022-11-19T20:31:13.639Z,7.87
2022-11-19T20:33:41.729Z,8.50
2022-11-19T20:36:09.997Z,9.60
2022-11-19T20:38:37.994Z,8.60
2022-11-19T20:41:06.790Z,10.00
2022-11-19T20:43:54.010Z,8.43
2022-11-19T20:46:22.552Z,8.03
2022-11-19T20:48:49.932Z,8.73
2022-11-19T20:51:19.786Z,10.00
2022-11-19T20:53:47.099Z,9.63
2022-11-19T20:56:14.609Z,9.47
2022-11-19T20:58:41.961Z,10.50
2022-11-19T21:01:10.437Z,9.57
2022-11-19T21:03:37.914Z,9.80
2022-11-19T21:06:06.719Z,9.77
2022-11-19T21:08:34.546Z,11.17
2022-11-19T21:11:03.001Z,12.00
2022-11-19T21:13:30.446Z,11.00
2022-11-19T21:15:58.676Z,10.30
2022-11-19T21:18:26.452Z,9.50
2022-11-19T21:20:53.590Z,10.07
2022-11-19T21:23:21.078Z,9.93
2022-11-19T21:25:48.204Z,10.13
2022-11-19T21:28:15.543Z,10.83
2022-11-19T21:30:42.721Z,12.40
2022-11-19T21:33:13.229Z,12.33
2022-11-19T21:35:41.303Z,18.10
2022-11-19T21:38:12.213Z,22.90
2022-11-19T21:40:40.130Z,39.43
2022-11-19T21:43:08.339Z,53.00
2022-11-19T21:45:39.731Z,18.63
2022-11-19T21:48:10.205Z,20.00
2022-11-19T21:50:40.838Z,24.77
2022-11-19T21:53:08.706Z,16.47
2022-11-19T21:55:39.209Z,20.83
2022-11-19T21:58:06.814Z,17.20
2022-11-19T22:00:34.593Z,18.60
2022-11-19T22:03:01.949Z,17.87
2022-11-19T22:05:29.145Z,17.50
2022-11-19T22:07:58.492Z,17.07
2022-11-19T22:10:25.756Z,13.37
2022-11-19T22:12:52.922Z,13.80
2022-11-19T22:15:20.292Z,17.67
2022-11-19T22:17:47.491Z,12.83
2022-11-19T22:20:14.879Z,12.73
2022-11-19T22:22:45.289Z,14.10
2022-11-19T22:25:13.351Z,14.60
2022-11-19T22:27:41.985Z,13.80
2022-11-19T22:30:10.164Z,16.10
2022-11-19T22:32:37.570Z,15.23
2022-11-19T22:35:06.883Z,16.13
2022-11-19T22:37:34.137Z,17.17
2022-11-19T22:40:01.324Z,18.70
2022-11-19T22:42:28.507Z,14.27
2022-11-19T22:44:55.739Z,13.17
2022-11-19T22:47:22.889Z,13.00
2022-11-19T22:49:50.031Z,12.43
2022-11-19T22:52:17.560Z,14.40
2022-11-19T22:54:44.745Z,12.43
2022-11-19T22:57:12.258Z,12.50
2022-11-19T22:59:39.383Z,13.03
2022-11-19T23:02:06.592Z,11.80
2022-11-19T23:04:33.885Z,11.63
2022-11-19T23:07:01.121Z,13.20
2022-11-19T23:09:28.371Z,12.97
2022-11-19T23:12:14.431Z,12.40
2022-11-19T23:14:42.423Z,31.90
2022-11-19T23:17:09.613Z,16.80
2022-11-19T23:19:37.621Z,20.17
2022-11-19T23:22:06.583Z,19.37
2022-11-19T23:24:33.861Z,13.00
2022-11-19T23:27:00.996Z,24.33
2022-11-19T23:29:28.144Z,20.20
2022-11-19T23:31:55.283Z,18.27
2022-11-19T23:34:22.608Z,19.57
2022-11-19T23:36:49.751Z,16.23
2022-11-19T23:39:17.508Z,17.90
2022-11-19T23:41:44.962Z,15.77
2022-11-19T23:44:12.246Z,15.03
2022-11-19T23:46:39.018Z,14.17
2022-11-19T23:49:06.008Z,15.50
2022-11-19T23:51:35.751Z,14.27
2022-11-19T23:54:02.796Z,15.10
2022-11-19T23:56:31.584Z,14.50
2022-11-19T23:59:00.523Z,13.50
